Time;durP1;ratioP1;P1;durP2;ratioP2;P2;SDS_P1;SDS_P2;PMS_P1;PMS_P2;Temp;Humidity;BMP_temperature;BMP_pressure;BME280_temperature;BME280_humidity;BME280_pressure;Samples;Min_cycle;Max_cycle;Signal;HPM_P1;HPM_P2
2023/07/24 00:04:40;;;;;;;;;;;;;;;22.59;48.79;95130.59;10445850;28;2023;-73
2023/07/24 00:09:41;;;;;;;;;;;;;;;22.53;48.53;95121.22;10458879;28;1940;-75
2023/07/24 00:14:41;;;;;;;;;;;;;;;22.53;48.33;95115.94;10453706;28;1795;-74
2023/07/24 00:19:41;;;;;;;;;;;;;;;22.51;48.53;95112.81;10454635;28;2136;-75
2023/07/24 00:24:42;;;;;;;;;;;;;;;22.47;48.50;95099.44;10450464;28;1949;-74
2023/07/24 00:29:42;;;;;;;;;;;;;;;22.48;48.57;95095.69;10447667;28;1889;-73
2023/07/24 00:34:42;;;;;;;;;;;;;;;22.48;48.40;95090.41;10441259;28;1861;-74
2023/07/24 00:39:42;;;;;;;;;;;;;;;22.49;48.67;95084.06;10445453;28;4766;-73
2023/07/24 00:44:43;;;;;;;;;;;;;;;22.46;48.37;95073.34;10480747;28;2106;-73
2023/07/24 00:49:43;;;;;;;;;;;;;;;22.43;48.36;95071.28;10451339;28;1882;-73
2023/07/24 00:54:43;;;;;;;;;;;;;;;22.43;48.58;95069.44;10454292;28;1913;-73
2023/07/24 00:59:43;;;;;;;;;;;;;;;22.42;48.30;95065.22;10449978;28;2293;-73
2023/07/24 01:04:44;;;;;;;;;;;;;;;22.41;48.51;95068.94;10450846;28;1919;-73
2023/07/24 01:09:44;;;;;;;;;;;;;;;22.41;48.94;95065.53;10444732;28;2085;-73
2023/07/24 01:14:46;;;;;;;;;;;;;;;22.43;48.72;95061.50;10446738;28;1968;-73
2023/07/24 01:19:49;;;;;;;;;;;;;;;22.44;48.36;95054.38;10454243;28;2007;-73
2023/07/24 01:25:00;;;;;;;;;;;;;;;22.35;48.70;95056.94;10443654;28;2287;-73
2023/07/24 01:30:00;;;;;;;;;;;;;;;22.38;48.80;95039.72;10448050;28;1960;-73
2023/07/24 01:35:01;;;;;;;;;;;;;;;22.40;48.52;95040.22;10448516;28;1910;-73
2023/07/24 01:40:02;;;;;;;;;;;;;;;22.36;48.69;95010.22;10446309;28;4493;-73
2023/07/24 01:45:02;;;;;;;;;;;;;;;22.30;48.63;95012.16;10445394;28;2253;-73
2023/07/24 01:50:03;;;;;;;;;;;;;;;22.30;48.55;95038.56;10453712;28;1966;-74
2023/07/24 01:55:03;;;;;;;;;;;;;;;22.33;48.70;95032.72;10450143;28;2387;-74
2023/07/24 02:00:04;;;;;;;;;;;;;;;22.34;49.29;95050.09;10450498;28;2263;-73
2023/07/24 02:05:04;;;;;;;;;;;;;;;22.45;49.20;95061.97;10440789;28;2004;-74
2023/07/24 02:10:05;;;;;;;;;;;;;;;22.51;49.32;95060.78;10443007;28;2041;-72
2023/07/24 02:15:05;;;;;;;;;;;;;;;22.47;49.36;95036.03;10443656;28;2071;-73
2023/07/24 02:20:06;;;;;;;;;;;;;;;22.54;49.67;95044.34;10440341;28;1944;-74
2023/07/24 02:25:06;;;;;;;;;;;;;;;22.46;48.86;95044.28;10441511;28;1995;-74
2023/07/24 02:30:07;;;;;;;;;;;;;;;22.48;49.12;95069.28;10441040;28;1964;-73
2023/07/24 02:35:07;;;;;;;;;;;;;;;22.49;48.93;95136.88;10450137;28;1951;-74
2023/07/24 02:40:08;;;;;;;;;;;;;;;22.49;48.70;95131.59;10449070;28;2051;-72
2023/07/24 02:45:10;;;;;;;;;;;;;;;22.51;48.85;95113.59;10461272;28;1931;-73
2023/07/24 02:50:11;;;;;;;;;;;;;;;22.52;48.87;95093.25;10454488;28;2240;-72
2023/07/24 02:55:11;;;;;;;;;;;;;;;22.46;48.93;95045.03;10450427;28;2010;-73
2023/07/24 03:00:11;;;;;;;;;;;;;;;22.47;49.61;95070.38;10446385;28;1975;-74
2023/07/24 03:05:11;;;;;;;;;;;;;;;22.49;48.82;95157.22;10448819;28;2181;-74
2023/07/24 03:10:12;;;;;;;;;;;;;;;22.33;49.39;95265.06;10449354;28;1979;-74
2023/07/24 03:15:12;;;;;;;;;;;;;;;22.36;49.88;95305.94;10450278;28;1940;-73
2023/07/24 03:20:16;;;;;;;;;;;;;;;22.40;50.66;95343.91;10450720;28;2093;-71
2023/07/24 03:25:16;;;;;;;;;;;;;;;22.46;50.58;95285.38;10450545;28;1951;-72
2023/07/24 03:30:17;;;;;;;;;;;;;;;22.53;50.76;95227.66;10457485;28;1984;-72
2023/07/24 03:35:17;;;;;;;;;;;;;;;22.58;50.97;95177.38;10454759;28;1961;-73
2023/07/24 03:40:17;;;;;;;;;;;;;;;22.65;51.17;95158.47;10455413;28;4576;-72
2023/07/24 03:45:17;;;;;;;;;;;;;;;22.69;51.26;95119.03;10449329;28;2229;-73
2023/07/24 03:50:18;;;;;;;;;;;;;;;22.70;51.70;95049.25;10452914;28;1971;-73
2023/07/24 03:55:18;;;;;;;;;;;;;;;22.71;51.66;95064.78;10451842;28;1896;-72
2023/07/24 04:00:18;;;;;;;;;;;;;;;22.74;51.88;95058.13;10456277;28;2028;-73
2023/07/24 04:05:18;;;;;;;;;;;;;;;22.77;51.89;95054.88;10451339;28;1954;-72
2023/07/24 04:10:19;;;;;;;;;;;;;;;22.80;52.28;95049.75;10446129;28;1956;-73
2023/07/24 04:15:19;;;;;;;;;;;;;;;22.84;52.38;95036.72;10446301;28;2007;-73
2023/07/24 04:20:20;;;;;;;;;;;;;;;22.84;52.09;95011.06;10457708;28;1916;-74
2023/07/24 04:25:20;;;;;;;;;;;;;;;22.81;52.00;95042.63;10448812;28;1940;-74
2023/07/24 04:30:21;;;;;;;;;;;;;;;22.82;52.45;95063.44;10447089;28;1993;-74
2023/07/24 04:35:21;;;;;;;;;;;;;;;22.81;52.14;95106.81;10459375;28;1979;-74
2023/07/24 04:40:21;;;;;;;;;;;;;;;22.80;52.22;95112.41;10447402;28;2001;-74
2023/07/24 04:45:22;;;;;;;;;;;;;;;22.84;52.50;95079.00;10449481;28;2040;-74
2023/07/24 04:50:22;;;;;;;;;;;;;;;22.76;52.96;95069.16;10446786;28;1940;-74
2023/07/24 04:55:22;;;;;;;;;;;;;;;22.76;53.06;95090.31;10445289;28;2050;-74
2023/07/24 05:00:22;;;;;;;;;;;;;;;22.76;52.94;95087.66;10445929;28;3142;-74
2023/07/24 05:05:23;;;;;;;;;;;;;;;22.79;52.75;95087.06;10442451;28;2952;-73
2023/07/24 05:10:23;;;;;;;;;;;;;;;22.79;52.92;95084.44;10460132;28;2581;-74
2023/07/24 05:15:23;;;;;;;;;;;;;;;22.80;52.69;95081.47;10450085;28;1916;-74
2023/07/24 05:20:23;;;;;;;;;;;;;;;22.75;52.99;95078.94;10448125;28;2996;-74
2023/07/24 05:25:24;;;;;;;;;;;;;;;22.70;53.26;95052.66;10451085;28;1943;-74
2023/07/24 05:30:24;;;;;;;;;;;;;;;22.67;53.09;95055.16;10451712;28;1942;-74
2023/07/24 05:35:24;;;;;;;;;;;;;;;22.67;53.13;95048.78;10443104;28;1973;-74
2023/07/24 05:40:25;;;;;;;;;;;;;;;22.61;53.92;95034.13;10444265;28;4510;-74
2023/07/24 05:45:26;;;;;;;;;;;;;;;22.63;53.26;95031.97;10448054;28;2028;-74
2023/07/24 05:50:26;;;;;;;;;;;;;;;22.61;53.06;95023.56;10443298;28;1954;-73
2023/07/24 05:55:26;;;;;;;;;;;;;;;22.63;53.15;95024.03;10446795;28;1979;-74
2023/07/24 06:00:27;;;;;;;;;;;;;;;22.65;52.87;95024.50;10446905;28;1959;-74
2023/07/24 06:05:27;;;;;;;;;;;;;;;22.67;52.59;95013.63;10447296;28;1941;-72
2023/07/24 06:10:27;;;;;;;;;;;;;;;22.72;52.59;94975.75;10448138;28;1920;-74
2023/07/24 06:15:28;;;;;;;;;;;;;;;22.73;52.58;94993.94;10445568;28;1995;-73
2023/07/24 06:20:28;;;;;;;;;;;;;;;22.78;52.42;95009.66;10453436;28;2233;-74
2023/07/24 06:25:28;;;;;;;;;;;;;;;22.80;52.55;94999.56;10446268;28;1971;-74
2023/07/24 06:30:28;;;;;;;;;;;;;;;22.84;52.28;94992.56;10452595;28;1935;-68
2023/07/24 06:35:29;;;;;;;;;;;;;;;22.87;52.15;94967.41;10457013;28;2373;-71
2023/07/24 06:40:29;;;;;;;;;;;;;;;22.88;52.05;94961.81;10468334;28;4470;-72
2023/07/24 06:45:30;;;;;;;;;;;;;;;22.91;51.97;94960.44;10447424;28;2042;-74
2023/07/24 06:50:30;;;;;;;;;;;;;;;22.94;51.87;94973.78;10449560;28;1972;-72
2023/07/24 06:55:30;;;;;;;;;;;;;;;22.97;51.90;94993.56;10446535;28;1934;-72
2023/07/24 07:00:31;;;;;;;;;;;;;;;22.99;52.05;94976.31;10443618;28;1983;-71
2023/07/24 07:05:32;;;;;;;;;;;;;;;23.03;51.87;94981.75;10446217;28;2148;-72
2023/07/24 07:10:32;;;;;;;;;;;;;;;23.04;51.76;94997.31;10448112;28;2517;-71
2023/07/24 07:15:32;;;;;;;;;;;;;;;23.06;51.77;95021.56;10441383;28;1951;-71
2023/07/24 07:20:32;;;;;;;;;;;;;;;23.11;51.64;95057.66;10443099;28;2054;-72
2023/07/24 07:25:33;;;;;;;;;;;;;;;23.13;51.32;95088.00;10447993;28;2085;-72
2023/07/24 07:30:33;;;;;;;;;;;;;;;23.13;51.09;95127.66;10443430;28;2091;-71
2023/07/24 07:35:33;;;;;;;;;;;;;;;23.07;51.44;95186.25;10444714;28;2081;-71
2023/07/24 07:40:33;;;;;;;;;;;;;;;22.83;52.30;95206.94;10443739;28;4581;-70
2023/07/24 07:45:34;;;;;;;;;;;;;;;22.99;52.69;95198.34;10446514;28;1923;-69
2023/07/24 07:50:34;;;;;;;;;;;;;;;22.96;53.18;95193.66;10437923;28;2043;-70
2023/07/24 07:55:34;;;;;;;;;;;;;;;22.94;53.82;95200.31;10448802;28;1910;-70
2023/07/24 08:00:34;;;;;;;;;;;;;;;22.92;54.62;95197.19;10440351;28;2011;-70
2023/07/24 08:05:35;;;;;;;;;;;;;;;22.95;54.43;95194.75;10437922;28;2158;-68
2023/07/24 08:10:38;;;;;;;;;;;;;;;22.96;54.57;95187.56;10443314;28;2473;-67
2023/07/24 08:15:38;;;;;;;;;;;;;;;22.96;54.56;95184.94;10436103;28;2208;-65
2023/07/24 08:20:40;;;;;;;;;;;;;;;22.98;54.35;95180.91;10442028;28;1898;-69
2023/07/24 08:25:40;;;;;;;;;;;;;;;23.03;54.00;95166.78;10445245;28;2121;-68
2023/07/24 08:30:40;;;;;;;;;;;;;;;23.05;53.92;95136.34;10431026;28;2259;-68
2023/07/24 08:35:40;;;;;;;;;;;;;;;23.07;54.26;95114.88;10439707;28;2135;-68
2023/07/24 08:40:41;;;;;;;;;;;;;;;23.11;53.96;95092.03;10441429;28;4352;-68
2023/07/24 08:45:41;;;;;;;;;;;;;;;23.14;53.90;95078.97;10436765;28;1991;-67
2023/07/24 08:50:41;;;;;;;;;;;;;;;23.18;53.99;95026.28;10438775;28;1950;-68
2023/07/24 08:55:42;;;;;;;;;;;;;;;23.21;53.55;95009.78;10433240;28;1993;-69
2023/07/24 09:00:42;;;;;;;;;;;;;;;23.21;53.37;95033.59;10442806;28;1908;-68
2023/07/24 09:05:42;;;;;;;;;;;;;;;23.20;53.42;95040.75;10434205;28;1947;-66
2023/07/24 09:10:43;;;;;;;;;;;;;;;23.20;53.66;95048.69;10432085;28;2500;-69
2023/07/24 09:15:43;;;;;;;;;;;;;;;23.20;53.66;95051.34;10438771;28;1942;-70
2023/07/24 09:20:44;;;;;;;;;;;;;;;23.23;53.62;95047.28;10443510;28;1896;-72
2023/07/24 09:25:44;;;;;;;;;;;;;;;23.25;53.57;95026.59;10447043;28;2239;-71
2023/07/24 09:30:52;;;;;;;;;;;;;;;23.26;53.67;95013.09;10436872;28;1968;-71
2023/07/24 09:36:02;;;;;;;;;;;;;;;23.29;53.04;95009.03;10456232;28;1981;-70
2023/07/24 09:41:05;;;;;;;;;;;;;;;23.28;53.35;94995.06;10444006;28;1931;-68
2023/07/24 09:46:06;;;;;;;;;;;;;;;23.28;53.62;95005.63;10435525;28;2009;-71
2023/07/24 09:51:08;;;;;;;;;;;;;;;23.28;53.33;95002.97;10467444;28;2284;-66
2023/07/24 09:56:08;;;;;;;;;;;;;;;23.31;52.90;94983.84;10451679;28;1971;-68
2023/07/24 10:01:09;;;;;;;;;;;;;;;23.31;52.59;94973.25;10438414;28;1941;-67
2023/07/24 10:06:14;;;;;;;;;;;;;;;23.33;52.57;94975.63;10436018;28;1987;-67
2023/07/24 10:11:14;;;;;;;;;;;;;;;23.33;51.88;94959.75;10432166;28;3239;-67
2023/07/24 10:16:15;;;;;;;;;;;;;;;23.34;51.82;94945.47;10441536;28;2838;-67
2023/07/24 10:21:15;;;;;;;;;;;;;;;23.32;51.60;94935.19;10438676;28;2141;-66
2023/07/24 10:26:16;;;;;;;;;;;;;;;23.37;51.73;94955.41;10433911;28;2803;-65
2023/07/24 10:31:23;;;;;;;;;;;;;;;23.37;51.86;94950.91;10432019;28;2152;-68
2023/07/24 10:36:24;;;;;;;;;;;;;;;23.39;52.47;94969.09;10437150;28;4395;-67
2023/07/24 10:41:34;;;;;;;;;;;;;;;23.43;52.03;94968.16;10441033;28;2702;-68
2023/07/24 10:46:38;;;;;;;;;;;;;;;23.47;52.10;94959.63;10431066;28;1832;-68
2023/07/24 10:51:38;;;;;;;;;;;;;;;23.47;51.96;94947.19;10437178;28;1897;-71
2023/07/24 10:56:38;;;;;;;;;;;;;;;23.49;52.14;94938.94;10437340;28;1902;-67
2023/07/24 11:01:38;;;;;;;;;;;;;;;23.50;51.96;94922.75;10438845;28;1882;-67
2023/07/24 11:06:39;;;;;;;;;;;;;;;23.50;51.74;94917.44;10477797;28;1842;-66
2023/07/24 11:11:39;;;;;;;;;;;;;;;23.52;51.69;94914.50;10442664;28;1962;-67
2023/07/24 11:16:47;;;;;;;;;;;;;;;23.52;51.46;94904.69;10451153;28;2364;-66
2023/07/24 11:21:48;;;;;;;;;;;;;;;23.52;51.40;94883.53;10449029;28;1835;-67
2023/07/24 11:26:48;;;;;;;;;;;;;;;23.54;51.27;94854.91;10436749;28;2013;-67
2023/07/24 11:31:53;;;;;;;;;;;;;;;23.58;50.49;94862.97;10475350;28;1915;-68
2023/07/24 11:36:53;;;;;;;;;;;;;;;23.56;50.23;94878.38;10445546;28;4636;-66
2023/07/24 11:41:54;;;;;;;;;;;;;;;23.59;49.87;94860.03;10440377;28;1899;-66
2023/07/24 11:47:03;;;;;;;;;;;;;;;23.59;50.26;94851.31;10443053;28;1771;-66
2023/07/24 11:52:04;;;;;;;;;;;;;;;23.61;50.02;94834.03;10445170;28;1937;-66
2023/07/24 11:57:17;;;;;;;;;;;;;;;23.60;50.41;94851.00;10439461;28;1903;-68
2023/07/24 12:02:18;;;;;;;;;;;;;;;23.59;50.15;94853.97;10443656;28;1896;-68
2023/07/24 12:07:18;;;;;;;;;;;;;;;23.59;49.83;94873.25;10444049;28;1825;-68
2023/07/24 12:12:18;;;;;;;;;;;;;;;23.59;49.58;94864.53;10451086;28;2496;-68
2023/07/24 12:17:19;;;;;;;;;;;;;;;23.59;49.53;94909.50;10452942;28;2433;-68
2023/07/24 12:22:20;;;;;;;;;;;;;;;23.60;49.54;94982.50;10438847;28;1999;-68
2023/07/24 12:27:20;;;;;;;;;;;;;;;23.61;49.67;95034.34;10443631;28;1958;-68
2023/07/24 12:32:22;;;;;;;;;;;;;;;23.60;50.12;95035.41;10435738;28;2009;-67
2023/07/24 12:37:22;;;;;;;;;;;;;;;23.63;50.26;94995.09;10442245;28;4644;-66
2023/07/24 12:42:23;;;;;;;;;;;;;;;23.64;50.27;94970.97;10444195;28;1893;-67
2023/07/24 12:47:23;;;;;;;;;;;;;;;23.65;50.31;94972.56;10440943;28;2001;-68
2023/07/24 12:52:24;;;;;;;;;;;;;;;23.67;50.55;94986.25;10440671;28;1869;-67
2023/07/24 12:57:26;;;;;;;;;;;;;;;23.70;50.72;95009.44;10439675;28;2054;-67
2023/07/24 13:02:26;;;;;;;;;;;;;;;23.69;50.53;95021.13;10438847;28;3825;-67
2023/07/24 13:07:26;;;;;;;;;;;;;;;23.71;50.83;95002.28;10438138;28;1882;-67
2023/07/24 13:12:27;;;;;;;;;;;;;;;23.72;50.91;94996.66;10433122;28;1763;-67
2023/07/24 13:17:28;;;;;;;;;;;;;;;23.74;50.62;94999.03;10431788;28;2511;-67
2023/07/24 13:22:28;;;;;;;;;;;;;;;23.74;50.97;94986.53;10437383;28;1921;-67
2023/07/24 13:27:28;;;;;;;;;;;;;;;23.75;50.82;94945.78;10440070;28;1947;-67
2023/07/24 13:32:29;;;;;;;;;;;;;;;23.76;50.68;94935.97;10450980;28;1895;-67
2023/07/24 13:37:30;;;;;;;;;;;;;;;23.76;50.74;94923.50;10439579;28;4458;-68
2023/07/24 13:42:30;;;;;;;;;;;;;;;23.77;50.97;94948.09;10440838;28;2018;-68
2023/07/24 13:47:30;;;;;;;;;;;;;;;23.78;51.20;94934.53;10433457;28;2037;-68
2023/07/24 13:52:30;;;;;;;;;;;;;;;23.74;53.22;94924.94;10443247;28;1928;-70
2023/07/24 13:57:31;;;;;;;;;;;;;;;23.64;55.51;94912.03;10435635;28;1910;-69
2023/07/24 14:02:31;;;;;;;;;;;;;;;23.61;54.57;94913.41;10435893;28;1965;-70
2023/07/24 14:07:31;;;;;;;;;;;;;;;23.53;55.32;94911.56;10444601;28;2389;-69
2023/07/24 14:12:32;;;;;;;;;;;;;;;23.56;55.35;94908.25;10441762;28;1940;-69
2023/07/24 14:17:32;;;;;;;;;;;;;;;23.51;55.73;94897.84;10447972;28;2468;-70
2023/07/24 14:22:32;;;;;;;;;;;;;;;23.41;55.32;94891.00;10442917;28;1850;-71
2023/07/24 14:27:33;;;;;;;;;;;;;;;23.51;55.53;94897.84;10443259;28;1992;-71
2023/07/24 14:32:33;;;;;;;;;;;;;;;23.52;55.19;94885.38;10435226;28;1889;-70
2023/07/24 14:37:33;;;;;;;;;;;;;;;23.57;55.18;94878.09;10440088;28;4481;-70
2023/07/24 14:42:34;;;;;;;;;;;;;;;23.54;54.43;94880.56;10445309;28;1862;-69
2023/07/24 14:47:34;;;;;;;;;;;;;;;23.58;54.15;94863.75;10446676;28;1786;-71
2023/07/24 14:52:34;;;;;;;;;;;;;;;23.58;53.49;94857.69;10445789;28;1938;-70
2023/07/24 14:57:35;;;;;;;;;;;;;;;23.56;52.72;94860.66;10448575;28;1914;-71
2023/07/24 15:02:35;;;;;;;;;;;;;;;23.59;52.70;94852.09;10446294;28;2328;-70
2023/07/24 15:07:35;;;;;;;;;;;;;;;23.63;52.83;94847.72;10452515;28;1838;-70
2023/07/24 15:12:36;;;;;;;;;;;;;;;23.64;52.41;94861.75;10452000;28;1818;-70
2023/07/24 15:17:36;;;;;;;;;;;;;;;23.65;52.73;94847.41;10458147;28;2604;-70
2023/07/24 15:22:36;;;;;;;;;;;;;;;23.67;52.71;94840.72;10447225;28;1960;-73
2023/07/24 15:27:36;;;;;;;;;;;;;;;23.71;52.59;94868.09;10449258;28;1861;-67
2023/07/24 15:32:37;;;;;;;;;;;;;;;23.69;52.60;94865.00;10453946;28;1826;-70
2023/07/24 15:37:37;;;;;;;;;;;;;;;23.71;52.50;94851.44;10449872;28;1909;-71
2023/07/24 15:42:37;;;;;;;;;;;;;;;23.71;52.38;94870.75;10452254;28;1874;-69
2023/07/24 15:47:37;;;;;;;;;;;;;;;23.74;52.30;94859.53;10476267;28;1846;-69
2023/07/24 15:52:38;;;;;;;;;;;;;;;23.73;52.19;94852.69;10445559;28;1941;-70
2023/07/24 15:57:38;;;;;;;;;;;;;;;23.75;52.23;94850.50;10434109;28;2342;-69
2023/07/24 16:02:38;;;;;;;;;;;;;;;23.74;52.16;94843.66;10447108;28;2030;-69
2023/07/24 16:07:39;;;;;;;;;;;;;;;23.76;52.24;94865.28;10441446;28;1950;-69
2023/07/24 16:12:39;;;;;;;;;;;;;;;23.76;52.02;94856.59;10443267;28;1899;-68
2023/07/24 16:17:39;;;;;;;;;;;;;;;23.77;51.84;94835.09;10435816;28;2476;-69
2023/07/24 16:22:40;;;;;;;;;;;;;;;23.77;51.89;94844.91;10442209;28;1833;-68
2023/07/24 16:27:40;;;;;;;;;;;;;;;23.77;51.96;94916.34;10439260;28;1874;-68
2023/07/24 16:32:44;;;;;;;;;;;;;;;23.77;51.81;94905.75;10439124;28;1953;-72
2023/07/24 16:37:44;;;;;;;;;;;;;;;23.73;52.17;94915.41;10456397;28;1993;-69
2023/07/24 16:42:45;;;;;;;;;;;;;;;23.75;51.92;94903.44;10441629;28;1814;-67
2023/07/24 16:47:45;;;;;;;;;;;;;;;23.74;51.95;94904.50;10440418;28;1850;-68
2023/07/24 16:52:45;;;;;;;;;;;;;;;23.70;52.04;94914.16;10439904;28;1881;-70
2023/07/24 16:57:45;;;;;;;;;;;;;;;23.70;51.87;94863.13;10440157;28;1902;-68
2023/07/24 17:02:46;;;;;;;;;;;;;;;23.70;51.92;94895.66;10469941;28;2003;-69
2023/07/24 17:07:46;;;;;;;;;;;;;;;23.69;52.21;94829.81;10444126;28;1799;-67
2023/07/24 17:12:46;;;;;;;;;;;;;;;23.69;52.14;94827.97;10448283;28;1821;-66
2023/07/24 17:17:47;;;;;;;;;;;;;;;23.70;52.12;94795.09;10451374;28;2008;-67
2023/07/24 17:22:47;;;;;;;;;;;;;;;23.69;52.23;94737.22;10450742;28;1440;-67
2023/07/24 17:27:47;;;;;;;;;;;;;;;23.68;52.34;94730.38;10449923;28;1466;-67
2023/07/24 17:32:47;;;;;;;;;;;;;;;23.69;52.62;94740.63;10449402;28;1523;-67
2023/07/24 17:37:48;;;;;;;;;;;;;;;23.71;52.61;94748.25;10455243;28;4557;-66
2023/07/24 17:42:49;;;;;;;;;;;;;;;23.74;53.04;94784.69;10453421;28;1561;-67
2023/07/24 17:47:49;;;;;;;;;;;;;;;23.75;53.17;94796.81;10446817;28;1487;-66
2023/07/24 17:52:50;;;;;;;;;;;;;;;23.77;53.40;94791.97;10445850;28;1443;-66
2023/07/24 17:57:52;;;;;;;;;;;;;;;23.78;53.95;94778.41;10447791;28;1979;-66
2023/07/24 18:02:52;;;;;;;;;;;;;;;23.80;53.62;94791.34;10470220;28;1543;-66
2023/07/24 18:07:52;;;;;;;;;;;;;;;23.80;53.63;94792.09;10445620;28;1481;-68
2023/07/24 18:12:53;;;;;;;;;;;;;;;23.85;53.55;94822.91;10446328;28;1531;-69
2023/07/24 18:17:53;;;;;;;;;;;;;;;23.87;54.13;94829.47;10438903;28;1954;-68
2023/07/24 18:22:53;;;;;;;;;;;;;;;23.84;54.31;94821.38;10439048;28;1846;-67
2023/07/24 18:27:53;;;;;;;;;;;;;;;23.84;54.58;94821.38;10446560;28;1810;-68
2023/07/24 18:32:55;;;;;;;;;;;;;;;23.79;54.87;94838.19;10444096;28;1927;-69
2023/07/24 18:37:55;;;;;;;;;;;;;;;23.70;55.81;94848.00;10435668;28;4564;-70
2023/07/24 18:42:55;;;;;;;;;;;;;;;23.52;57.16;94832.50;10445040;28;1942;-69
2023/07/24 18:47:57;;;;;;;;;;;;;;;23.39;58.25;94839.50;10440877;28;2289;-68
2023/07/24 18:52:58;;;;;;;;;;;;;;;23.30;58.15;94801.69;10442074;28;1889;-69
2023/07/24 18:57:58;;;;;;;;;;;;;;;23.24;58.74;94819.59;10442881;28;1973;-68
2023/07/24 19:02:58;;;;;;;;;;;;;;;23.19;58.46;94848.03;10441619;28;2106;-69
2023/07/24 19:07:59;;;;;;;;;;;;;;;23.03;58.97;94860.94;10440985;28;1961;-69
2023/07/24 19:12:59;;;;;;;;;;;;;;;23.15;58.43;94847.09;10441869;28;1814;-72
2023/07/24 19:17:59;;;;;;;;;;;;;;;23.21;58.24;94880.22;10438704;28;2004;-72
2023/07/24 19:22:59;;;;;;;;;;;;;;;23.25;57.95;94889.88;10449275;28;1806;-72
2023/07/24 19:28:00;;;;;;;;;;;;;;;23.30;57.86;94862.50;10452638;28;1940;-71
2023/07/24 19:33:00;;;;;;;;;;;;;;;23.34;57.85;94900.50;10450234;28;2008;-71
2023/07/24 19:38:00;;;;;;;;;;;;;;;23.37;57.62;94902.50;10446338;28;1953;-71
2023/07/24 19:43:01;;;;;;;;;;;;;;;23.40;57.57;94909.84;10443835;28;2229;-71
2023/07/24 19:48:01;;;;;;;;;;;;;;;23.37;57.75;94898.00;10454290;28;1893;-73
2023/07/24 19:53:01;;;;;;;;;;;;;;;23.39;57.66;94890.53;10466329;28;1853;-73
2023/07/24 19:58:01;;;;;;;;;;;;;;;23.39;57.53;94868.59;10454986;28;1911;-73
2023/07/24 20:03:02;;;;;;;;;;;;;;;23.41;57.40;94848.69;10450078;28;1866;-73
2023/07/24 20:08:02;;;;;;;;;;;;;;;23.39;57.88;94865.94;10451667;28;1911;-72
2023/07/24 20:13:02;;;;;;;;;;;;;;;23.31;58.59;94887.84;10457182;28;1770;-72
2023/07/24 20:18:03;;;;;;;;;;;;;;;23.27;58.23;94874.47;10446190;28;1916;-72
2023/07/24 20:23:03;;;;;;;;;;;;;;;23.32;57.63;94878.88;10451548;28;1853;-72
2023/07/24 20:28:03;;;;;;;;;;;;;;;23.25;58.25;94889.09;10455121;28;1847;-73
2023/07/24 20:33:04;;;;;;;;;;;;;;;23.26;57.78;94894.09;10444963;28;2073;-72
2023/07/24 20:38:04;;;;;;;;;;;;;;;23.26;57.54;94902.03;10450101;28;4597;-73
2023/07/24 20:43:05;;;;;;;;;;;;;;;23.19;58.36;94903.56;10450036;28;2324;-73
2023/07/24 20:48:05;;;;;;;;;;;;;;;23.19;57.93;94898.28;10455082;28;1907;-72
2023/07/24 20:53:05;;;;;;;;;;;;;;;23.18;58.08;94888.81;10451453;28;1826;-73
2023/07/24 20:58:06;;;;;;;;;;;;;;;23.11;57.86;94901.69;10454139;28;1963;-74
2023/07/24 21:03:06;;;;;;;;;;;;;;;23.10;57.70;94908.09;10449073;28;1916;-74
2023/07/24 21:08:06;;;;;;;;;;;;;;;23.03;57.61;94928.91;10447283;28;1894;-72
2023/07/24 21:13:06;;;;;;;;;;;;;;;23.04;57.25;94943.69;10449638;28;1779;-73
2023/07/24 21:18:07;;;;;;;;;;;;;;;23.01;57.48;94936.34;10448426;28;1914;-72
2023/07/24 21:23:07;;;;;;;;;;;;;;;22.97;57.61;94916.91;10452326;28;1866;-73
2023/07/24 21:28:07;;;;;;;;;;;;;;;22.93;57.96;94916.75;10457408;28;1827;-73
2023/07/24 21:33:07;;;;;;;;;;;;;;;22.90;57.92;94916.56;10448284;28;1818;-73
2023/07/24 21:38:08;;;;;;;;;;;;;;;22.85;57.97;94927.31;10455062;28;4524;-73
2023/07/24 21:43:08;;;;;;;;;;;;;;;22.84;58.13;94931.03;10447768;28;1912;-73
2023/07/24 21:48:08;;;;;;;;;;;;;;;22.83;57.92;94953.25;10448892;28;1953;-74
2023/07/24 21:53:09;;;;;;;;;;;;;;;22.82;58.28;94956.97;10450643;28;1892;-74
2023/07/24 21:58:09;;;;;;;;;;;;;;;22.80;58.02;94961.78;10448017;28;1960;-73
2023/07/24 22:03:09;;;;;;;;;;;;;;;22.79;58.03;94949.66;10442584;28;2161;-73
2023/07/24 22:08:10;;;;;;;;;;;;;;;22.70;58.37;94957.56;10442760;28;1896;-75
2023/07/24 22:13:10;;;;;;;;;;;;;;;22.74;57.95;94978.84;10446156;28;1931;-74
2023/07/24 22:18:10;;;;;;;;;;;;;;;22.75;58.07;94967.22;10444623;28;1995;-72
2023/07/24 22:23:10;;;;;;;;;;;;;;;22.72;57.87;94954.59;10442731;28;1861;-74
2023/07/24 22:28:11;;;;;;;;;;;;;;;22.76;57.55;94955.56;10445329;28;1979;-74
2023/07/24 22:33:11;;;;;;;;;;;;;;;22.78;57.41;94953.38;10442598;28;2398;-74
2023/07/24 22:38:12;;;;;;;;;;;;;;;22.80;57.13;94930.84;10445513;28;1977;-73
2023/07/24 22:43:12;;;;;;;;;;;;;;;22.80;57.15;94922.16;10449428;28;1822;-74
2023/07/24 22:48:12;;;;;;;;;;;;;;;22.83;57.10;94929.47;10451472;28;1959;-73
2023/07/24 22:53:13;;;;;;;;;;;;;;;22.80;57.01;94940.63;10448029;28;1972;-73
2023/07/24 22:58:13;;;;;;;;;;;;;;;22.74;56.99;94931.31;10436591;28;1987;-73
2023/07/24 23:03:13;;;;;;;;;;;;;;;22.71;56.94;94937.22;10448182;28;1900;-73
2023/07/24 23:08:13;;;;;;;;;;;;;;;22.74;56.69;94915.44;10453093;28;1862;-73
2023/07/24 23:13:14;;;;;;;;;;;;;;;22.71;56.49;94903.63;10456593;28;1823;-74
2023/07/24 23:18:16;;;;;;;;;;;;;;;22.70;56.34;94899.44;10456393;28;1902;-73
2023/07/24 23:23:16;;;;;;;;;;;;;;;22.71;56.21;94881.72;10452111;28;1900;-73
2023/07/24 23:28:16;;;;;;;;;;;;;;;22.71;56.21;94884.38;10458503;28;2087;-73
2023/07/24 23:33:16;;;;;;;;;;;;;;;22.70;56.30;94888.09;10447693;28;2025;-74
2023/07/24 23:38:17;;;;;;;;;;;;;;;22.72;56.25;94899.91;10453771;28;4482;-74
2023/07/24 23:43:17;;;;;;;;;;;;;;;22.74;56.26;94902.25;10448986;28;1899;-75
2023/07/24 23:48:17;;;;;;;;;;;;;;;22.71;55.99;94892.31;10452928;28;1907;-74
2023/07/24 23:53:17;;;;;;;;;;;;;;;22.69;56.28;94883.91;10449935;28;1874;-73
2023/07/24 23:58:18;;;;;;;;;;;;;;;22.67;56.42;94870.22;10456348;28;1997;-74
